Time;durP1;ratioP1;P1;durP2;ratioP2;P2;SDS_P1;SDS_P2;PMS_P1;PMS_P2;Temp;Humidity;BMP_temperature;BMP_pressure;BME280_temperature;BME280_humidity;BME280_pressure;Samples;Min_cycle;Max_cycle;Signal;HPM_P1;HPM_P2
2023/03/02 00:02:24;;;;;;;197.40;77.70;;;;;;;-5.05;100.00;98791.87;52516;1257;1016386;-77
2023/03/02 00:04:52;;;;;;;186.90;80.90;;;;;;;-5.02;100.00;98795.06;52490;1254;1073998;-78
2023/03/02 00:07:25;;;;;;;196.60;81.50;;;;;;;-5.05;100.00;98797.59;52330;1254;1176876;-77
2023/03/02 00:09:52;;;;;;;197.10;80.20;;;;;;;-5.03;100.00;98798.30;52398;1256;1072139;-77
2023/03/02 00:12:19;;;;;;;175.80;72.30;;;;;;;-5.01;100.00;98800.54;52650;1259;1016038;-77
2023/03/02 00:14:45;;;;;;;206.90;80.60;;;;;;;-5.00;100.00;98799.55;52350;1258;1075053;-77
2023/03/02 00:17:12;;;;;;;191.70;81.30;;;;;;;-5.00;100.00;98799.88;52355;1258;1016193;-77
2023/03/02 00:19:38;;;;;;;172.90;75.90;;;;;;;-5.01;100.00;98800.91;52548;1254;1054415;-77
2023/03/02 00:22:05;;;;;;;180.80;77.70;;;;;;;-5.05;100.00;98797.08;52524;1254;1016133;-77
2023/03/02 00:24:32;;;;;;;168.70;68.80;;;;;;;-5.05;100.00;98797.98;52495;1254;1060864;-77
2023/03/02 00:26:58;;;;;;;170.30;70.20;;;;;;;-5.06;100.00;98800.19;52506;1254;1016046;-77
2023/03/02 00:29:25;;;;;;;166.20;74.70;;;;;;;-5.10;100.00;98800.98;52407;1254;1071780;-77
2023/03/02 00:31:52;;;;;;;172.80;75.80;;;;;;;-5.13;100.00;98800.15;52445;1254;1018056;-77
2023/03/02 00:34:18;;;;;;;173.70;74.50;;;;;;;-5.17;100.00;98798.71;52520;1254;1072412;-77
2023/03/02 00:36:48;;;;;;;182.00;74.30;;;;;;;-5.21;100.00;98793.66;52437;1254;1016302;-77
2023/03/02 00:39:18;;;;;;;169.50;73.60;;;;;;;-5.23;100.00;98792.47;52480;1257;1070522;-77
2023/03/02 00:41:46;;;;;;;168.40;73.90;;;;;;;-5.25;100.00;98790.23;52501;1259;1073660;-77
2023/03/02 00:44:16;;;;;;;186.90;74.50;;;;;;;-5.30;100.00;98790.77;52469;1254;1016201;-77
2023/03/02 00:46:43;;;;;;;179.20;75.10;;;;;;;-5.30;100.00;98791.44;52463;1259;1051417;-77
2023/03/02 00:49:10;;;;;;;191.00;82.50;;;;;;;-5.36;100.00;98796.02;52434;1258;1015778;-77
2023/03/02 00:51:37;;;;;;;194.40;82.70;;;;;;;-5.39;100.00;98791.99;52455;1256;1060927;-76
2023/03/02 00:54:04;;;;;;;179.90;78.90;;;;;;;-5.42;100.00;98790.92;52403;1254;1016420;-77
2023/03/02 00:56:30;;;;;;;180.10;76.30;;;;;;;-5.44;100.00;98783.07;52471;1257;1075783;-77
2023/03/02 00:58:57;;;;;;;178.30;71.40;;;;;;;-5.45;100.00;98782.11;52408;1259;1015940;-77
2023/03/02 01:01:24;;;;;;;167.40;71.30;;;;;;;-5.47;100.00;98779.65;52485;1259;1073011;-76
2023/03/02 01:03:50;;;;;;;174.30;78.00;;;;;;;-5.51;100.00;98773.53;52505;1254;1016537;-77
2023/03/02 01:06:18;;;;;;;156.10;65.60;;;;;;;-5.57;100.00;98770.10;52428;1254;1072962;-78
2023/03/02 01:08:45;;;;;;;178.60;73.00;;;;;;;-5.60;100.00;98768.54;52477;1260;1018688;-77
2023/03/02 01:11:15;;;;;;;183.60;77.30;;;;;;;-5.61;100.00;98769.89;52484;1259;1051418;-77
2023/03/02 01:13:42;;;;;;;174.40;73.20;;;;;;;-5.61;100.00;98771.45;52383;1254;1050173;-76
2023/03/02 01:16:09;;;;;;;168.90;70.10;;;;;;;-5.65;100.00;98766.00;52473;1254;1016233;-77
2023/03/02 01:18:37;;;;;;;175.90;73.40;;;;;;;-5.67;100.00;98769.16;52451;1252;1058496;-77
2023/03/02 01:21:09;;;;;;;170.10;71.20;;;;;;;-5.65;100.00;98768.14;52486;1256;1016114;-77
2023/03/02 01:23:35;;;;;;;162.70;68.00;;;;;;;-5.66;100.00;98770.85;52497;1253;1060862;-77
2023/03/02 01:26:02;;;;;;;152.90;63.10;;;;;;;-5.67;100.00;98767.41;52440;1256;1015873;-77
2023/03/02 01:28:29;;;;;;;146.60;62.80;;;;;;;-5.65;100.00;98769.79;52437;1254;1075806;-76
2023/03/02 01:30:55;;;;;;;154.50;62.20;;;;;;;-5.65;100.00;98766.95;52446;1253;1018524;-77
2023/03/02 01:33:22;;;;;;;157.00;62.70;;;;;;;-5.65;100.00;98767.74;52416;1254;1068017;-77
2023/03/02 01:35:49;;;;;;;131.00;60.00;;;;;;;-5.63;100.00;98762.13;52497;1254;1016437;-77
2023/03/02 01:38:15;;;;;;;153.20;63.20;;;;;;;-5.63;100.00;98758.30;52450;1254;1073413;-77
2023/03/02 01:40:42;;;;;;;142.80;63.90;;;;;;;-5.68;100.00;98755.20;52424;1259;1015456;-77
2023/03/02 01:43:14;;;;;;;144.60;61.20;;;;;;;-5.72;100.00;98752.13;52467;1259;1051515;-76
2023/03/02 01:45:51;;;;;;;148.00;62.90;;;;;;;-5.73;100.00;98752.08;52451;1258;1052032;-77
2023/03/02 01:48:22;;;;;;;150.80;60.90;;;;;;;-5.73;100.00;98749.44;52406;1254;1051607;-77
2023/03/02 01:50:49;;;;;;;166.20;65.90;;;;;;;-5.74;100.00;98746.22;52467;1259;1050778;-77
2023/03/02 01:53:15;;;;;;;142.40;62.00;;;;;;;-5.75;100.00;98745.77;52389;1254;1016257;-77
2023/03/02 01:55:43;;;;;;;163.00;66.30;;;;;;;-5.79;100.00;98739.65;52411;1258;1057992;-77
2023/03/02 01:58:10;;;;;;;152.70;67.20;;;;;;;-5.82;100.00;98736.09;52434;1254;1015807;-77
2023/03/02 02:00:37;;;;;;;144.30;64.10;;;;;;;-5.83;100.00;98734.27;52454;1257;1072782;-76
2023/03/02 02:03:14;;;;;;;129.40;56.10;;;;;;;-5.82;100.00;98731.40;52423;1259;1017110;-77
2023/03/02 02:05:42;;;;;;;131.90;57.40;;;;;;;-5.82;100.00;98727.70;52543;1257;1068832;-77
2023/03/02 02:08:09;;;;;;;123.30;52.40;;;;;;;-5.82;100.00;98726.45;52498;1254;1018058;-77
2023/03/02 02:10:35;;;;;;;129.60;56.00;;;;;;;-5.81;100.00;98724.95;52608;1259;1072902;-77
2023/03/02 02:13:02;;;;;;;122.30;55.80;;;;;;;-5.84;100.00;98725.38;52476;1259;1018217;-77
2023/03/02 02:15:29;;;;;;;126.70;54.80;;;;;;;-5.85;100.00;98725.16;52507;1254;1054177;-77
2023/03/02 02:17:56;;;;;;;112.90;53.10;;;;;;;-5.84;100.00;98727.10;52423;1259;1018130;-77
2023/03/02 02:20:25;;;;;;;112.10;51.30;;;;;;;-5.84;100.00;98727.17;52470;1254;1059553;-77
2023/03/02 02:22:58;;;;;;;122.30;53.50;;;;;;;-5.85;100.00;98722.50;52515;1254;1018196;-78
2023/03/02 02:25:24;;;;;;;121.90;50.20;;;;;;;-5.85;100.00;98720.88;52452;1254;1059323;-77
2023/03/02 02:27:51;;;;;;;112.10;48.50;;;;;;;-5.85;100.00;98718.43;52452;1259;1020000;-77
2023/03/02 02:30:17;;;;;;;123.20;52.60;;;;;;;-5.89;100.00;98717.50;52495;1257;1074168;-76
2023/03/02 02:32:44;;;;;;;114.00;49.50;;;;;;;-5.90;100.00;98716.38;52440;1264;1016319;-77
2023/03/02 02:35:14;;;;;;;112.10;47.90;;;;;;;-5.89;100.00;98718.79;52415;1254;1072047;-77
2023/03/02 02:37:46;;;;;;;114.60;52.10;;;;;;;-5.88;100.00;98716.48;52511;1254;1015601;-77
2023/03/02 02:40:16;;;;;;;114.10;52.40;;;;;;;-5.90;100.00;98711.99;52446;1254;1072367;-77
2023/03/02 02:42:44;;;;;;;104.20;49.00;;;;;;;-5.91;100.00;98711.69;52492;1254;1016588;-77
2023/03/02 02:45:24;;;;;;;94.60;43.90;;;;;;;-5.86;100.00;98709.12;52479;1257;1016274;-77
2023/03/02 02:47:51;;;;;;;121.80;52.90;;;;;;;-5.85;100.00;98705.81;52479;1254;1072228;-77
2023/03/02 02:50:23;;;;;;;131.90;57.80;;;;;;;-5.86;100.00;98706.45;52473;1254;1016340;-77
2023/03/02 02:52:56;;;;;;;117.40;53.80;;;;;;;-5.85;100.00;98709.35;52386;1254;1072120;-76
2023/03/02 02:55:23;;;;;;;129.50;55.30;;;;;;;-5.84;100.00;98709.95;52505;1257;1073759;-77
2023/03/02 02:57:50;;;;;;;121.40;51.20;;;;;;;-5.85;100.00;98706.84;52378;1259;1018143;-77
2023/03/02 03:00:18;;;;;;;145.80;58.50;;;;;;;-5.88;100.00;98702.59;52494;1259;1053368;-78
2023/03/02 03:02:45;;;;;;;117.40;53.80;;;;;;;-5.90;100.00;98702.84;52510;1259;1016596;-77
2023/03/02 03:05:14;;;;;;;126.40;54.90;;;;;;;-5.94;100.00;98705.21;52369;1254;1058920;-76
2023/03/02 03:07:41;;;;;;;123.10;55.60;;;;;;;-6.00;100.00;98704.14;52469;1263;1015727;-77
2023/03/02 03:10:20;;;;;;;125.70;53.90;;;;;;;-6.03;100.00;98708.39;52436;1254;1016076;-76
2023/03/02 03:12:47;;;;;;;129.00;57.20;;;;;;;-6.08;100.00;98701.13;52513;1259;1075899;-76
2023/03/02 03:15:14;;;;;;;119.80;53.00;;;;;;;-6.13;100.00;98692.24;52432;1257;1015689;-76
2023/03/02 03:17:55;;;;;;;135.30;53.00;;;;;;;-6.16;100.00;98695.55;52431;1259;1072100;-76
2023/03/02 03:20:22;;;;;;;131.00;54.80;;;;;;;-6.21;100.00;98694.98;52536;1254;1071803;-76
2023/03/02 03:22:52;;;;;;;133.20;57.70;;;;;;;-6.25;100.00;98690.98;52529;1254;1016512;-76
2023/03/02 03:25:20;;;;;;;130.10;54.90;;;;;;;-6.28;100.00;98690.67;52402;1259;1070860;-76
2023/03/02 03:27:46;;;;;;;113.30;50.80;;;;;;;-6.27;100.00;98685.16;52381;1254;1016465;-76
2023/03/02 03:30:13;;;;;;;124.00;51.10;;;;;;;-6.26;100.00;98686.63;52458;1259;1051403;-76
2023/03/02 03:32:40;;;;;;;127.20;57.60;;;;;;;-6.31;100.00;98690.14;52395;1254;1016258;-76
2023/03/02 03:35:10;;;;;;;119.20;52.30;;;;;;;-6.31;100.00;98691.27;52433;1254;1057958;-77
2023/03/02 03:37:40;;;;;;;125.50;57.20;;;;;;;-6.33;100.00;98683.31;52437;1254;1019307;-75
2023/03/02 03:40:08;;;;;;;121.70;53.90;;;;;;;-6.34;100.00;98682.75;52484;1254;1015938;-76
2023/03/02 03:42:36;;;;;;;120.00;56.90;;;;;;;-6.41;100.00;98681.57;52546;1254;1015542;-77
2023/03/02 03:45:03;;;;;;;125.20;55.00;;;;;;;-6.46;100.00;98682.10;52452;1254;1019648;-76
2023/03/02 03:47:30;;;;;;;119.70;54.10;;;;;;;-6.49;100.00;98684.10;52436;1254;1075020;-76
2023/03/02 03:49:56;;;;;;;109.80;47.20;;;;;;;-6.48;100.00;98680.84;52479;1254;1016187;-76
2023/03/02 03:52:29;;;;;;;102.00;44.30;;;;;;;-6.46;100.00;98683.48;52467;1254;1068922;-76
2023/03/02 03:54:59;;;;;;;115.20;48.90;;;;;;;-6.45;100.00;98679.13;52432;1258;1072194;-76
2023/03/02 03:57:26;;;;;;;99.10;43.20;;;;;;;-6.42;100.00;98678.69;52473;1254;1015880;-76
2023/03/02 03:59:53;;;;;;;102.80;43.70;;;;;;;-6.39;100.00;98675.67;52510;1254;1018035;-76
2023/03/02 04:02:20;;;;;;;86.90;41.50;;;;;;;-6.36;100.00;98671.30;52435;1254;1070653;-76
2023/03/02 04:04:46;;;;;;;106.60;42.40;;;;;;;-6.34;100.00;98666.73;52449;1258;1017181;-76
2023/03/02 04:07:13;;;;;;;88.00;39.80;;;;;;;-6.35;100.00;98666.27;52455;1259;1051469;-76
2023/03/02 04:09:40;;;;;;;98.40;42.60;;;;;;;-6.37;100.00;98665.95;52438;1259;1016408;-76
2023/03/02 04:12:07;;;;;;;88.80;40.60;;;;;;;-6.35;100.00;98664.71;52470;1254;1058510;-76
2023/03/02 04:14:33;;;;;;;94.90;44.10;;;;;;;-6.34;100.00;98661.69;52430;1259;1017369;-76
2023/03/02 04:17:04;;;;;;;105.00;44.40;;;;;;;-6.37;100.00;98662.50;52411;1254;1072651;-76
2023/03/02 04:19:31;;;;;;;101.60;44.20;;;;;;;-6.39;100.00;98662.19;52571;1256;1075803;-76
2023/03/02 04:21:58;;;;;;;99.10;43.70;;;;;;;-6.47;100.00;98656.98;52521;1257;1016061;-76
2023/03/02 04:24:25;;;;;;;111.30;48.30;;;;;;;-6.47;100.00;98654.34;52476;1257;1069737;-76
2023/03/02 04:26:51;;;;;;;113.90;45.50;;;;;;;-6.50;100.00;98651.83;52461;1254;1016155;-76
2023/03/02 04:29:18;;;;;;;100.40;46.20;;;;;;;-6.48;100.00;98650.05;52424;1254;1073368;-76
2023/03/02 04:31:45;;;;;;;121.60;51.90;;;;;;;-6.47;100.00;98648.89;52473;1254;1016198;-76
2023/03/02 04:34:11;;;;;;;109.10;46.20;;;;;;;-6.47;100.00;98650.14;52429;1254;1051643;-76
2023/03/02 04:36:38;;;;;;;98.80;44.60;;;;;;;-6.46;100.00;98653.68;52423;1259;1016053;-76
2023/03/02 04:39:05;;;;;;;97.00;45.20;;;;;;;-6.46;100.00;98649.17;52427;1254;1058492;-76
2023/03/02 04:41:32;;;;;;;111.60;46.30;;;;;;;-6.45;100.00;98645.58;52465;1258;1018460;-76
2023/03/02 04:43:59;;;;;;;105.10;46.30;;;;;;;-6.46;100.00;98650.26;52459;1258;1074963;-76
2023/03/02 04:46:26;;;;;;;113.70;48.00;;;;;;;-6.49;100.00;98648.73;52471;1254;1016420;-76
2023/03/02 04:48:53;;;;;;;107.90;49.80;;;;;;;-6.57;100.00;98650.95;52425;1253;1072366;-76
2023/03/02 04:51:22;;;;;;;119.10;47.50;;;;;;;-6.58;100.00;98649.83;52530;1259;1016193;-76
2023/03/02 04:53:51;;;;;;;107.40;48.50;;;;;;;-6.56;100.00;98648.02;52537;1259;1071602;-76
2023/03/02 04:56:17;;;;;;;100.90;47.20;;;;;;;-6.57;100.00;98644.45;52469;1259;1015874;-78
2023/03/02 04:58:44;;;;;;;110.60;51.30;;;;;;;-6.55;100.00;98644.77;52471;1260;1050595;-76
2023/03/02 05:01:11;;;;;;;113.80;47.80;;;;;;;-6.49;100.00;98644.04;52432;1255;1015993;-76
2023/03/02 05:03:37;;;;;;;110.40;45.70;;;;;;;-6.44;100.00;98647.19;52467;1254;1058596;-76
2023/03/02 05:06:04;;;;;;;108.50;47.50;;;;;;;-6.40;100.00;98645.59;52386;1259;1015849;-77
2023/03/02 05:08:31;;;;;;;108.50;48.60;;;;;;;-6.37;100.00;98649.84;52462;1254;1072570;-77
2023/03/02 05:10:58;;;;;;;98.40;45.20;;;;;;;-6.37;100.00;98644.76;52534;1254;1016371;-77
2023/03/02 05:13:25;;;;;;;109.70;46.20;;;;;;;-6.38;100.00;98649.77;52543;1254;1069986;-78
2023/03/02 05:15:52;;;;;;;102.90;45.50;;;;;;;-6.38;100.00;98648.89;52576;1258;1016245;-77
2023/03/02 05:18:19;;;;;;;88.00;46.20;;;;;;;-6.41;100.00;98649.86;52457;1258;1073574;-77
2023/03/02 05:20:46;;;;;;;86.10;41.20;;;;;;;-6.42;100.00;98651.95;52754;1257;1016328;-77
2023/03/02 05:23:22;;;;;;;102.20;44.30;;;;;;;-6.45;100.00;98649.46;52523;1254;1051732;-77
2023/03/02 05:25:50;;;;;;;102.20;44.50;;;;;;;-6.47;100.00;98651.96;52480;1254;1050081;-77
2023/03/02 05:28:17;;;;;;;116.10;47.20;;;;;;;-6.48;100.00;98651.71;52445;1254;1016373;-77
2023/03/02 05:30:44;;;;;;;105.40;48.40;;;;;;;-6.53;100.00;98658.48;52471;1259;1058595;-77
2023/03/02 05:33:11;;;;;;;117.00;53.20;;;;;;;-6.58;100.00;98664.62;52490;1254;1016034;-77
2023/03/02 05:35:38;;;;;;;126.90;52.40;;;;;;;-6.62;100.00;98663.31;52445;1254;1072814;-78
2023/03/02 05:38:04;;;;;;;125.90;55.80;;;;;;;-6.63;100.00;98667.02;52375;1259;1016298;-77
2023/03/02 05:40:31;;;;;;;113.00;50.50;;;;;;;-6.61;100.00;98666.50;52495;1259;1071717;-77
2023/03/02 05:42:57;;;;;;;113.80;45.90;;;;;;;-6.62;100.00;98667.98;52463;1258;1015949;-77
2023/03/02 05:45:27;;;;;;;115.60;51.90;;;;;;;-6.62;100.00;98666.64;52407;1258;1074772;-77
2023/03/02 05:47:53;;;;;;;;;;;;;;;-6.58;100.00;98664.60;52505;1254;1018779;-77
2023/03/02 05:50:20;;;;;;;105.30;44.90;;;;;;;-6.52;100.00;98662.63;52443;1259;1018185;-77
2023/03/02 05:52:47;;;;;;;125.70;50.90;;;;;;;-6.47;100.00;98666.64;52487;1257;1051468;-78
2023/03/02 05:55:13;;;;;;;111.00;49.30;;;;;;;-6.43;100.00;98667.70;52444;1254;1017362;-78
2023/03/02 05:57:40;;;;;;;110.40;48.10;;;;;;;-6.41;100.00;98667.81;52442;1259;1060474;-78
2023/03/02 06:00:08;;;;;;;101.30;47.30;;;;;;;-6.35;100.00;98671.05;52483;1259;1016294;-77
2023/03/02 06:02:38;;;;;;;121.90;49.50;;;;;;;-6.25;100.00;98671.39;52576;1259;1072743;-77
2023/03/02 06:05:05;;;;;;;;;;;;;;;-6.18;100.00;98670.21;52513;1256;1016289;-77
2023/03/02 06:07:31;;;;;;;111.00;51.20;;;;;;;-6.13;100.00;98675.45;52499;1254;1015711;-77
2023/03/02 06:09:58;;;;;;;115.30;53.20;;;;;;;-6.05;100.00;98678.65;52498;1259;1069404;-77
2023/03/02 06:12:26;;;;;;;106.40;48.90;;;;;;;-6.00;100.00;98680.22;52467;1259;1016262;-77
2023/03/02 06:14:52;;;;;;;122.90;49.50;;;;;;;-5.94;100.00;98682.85;52456;1254;1070707;-78
2023/03/02 06:17:19;;;;;;;113.50;46.10;;;;;;;-5.90;100.00;98683.61;52530;1260;1017554;-77
2023/03/02 06:19:45;;;;;;;104.60;45.90;;;;;;;-5.84;100.00;98686.69;52491;1259;1051333;-78
2023/03/02 06:22:12;;;;;;;97.50;42.50;;;;;;;-5.77;100.00;98685.23;52500;1264;1016486;-77
2023/03/02 06:24:39;;;;;;;101.90;46.20;;;;;;;-5.70;100.00;98687.50;52490;1254;1058742;-77
2023/03/02 06:27:05;;;;;;;101.90;43.80;;;;;;;-5.63;100.00;98688.34;52448;1259;1015932;-77
2023/03/02 06:29:32;;;;;;;97.00;43.50;;;;;;;-5.57;100.00;98688.63;52455;1259;1073153;-78
2023/03/02 06:31:59;;;;;;;95.20;46.20;;;;;;;-5.47;100.00;98695.79;52511;1257;1018334;-78
2023/03/02 06:34:28;;;;;;;100.80;46.10;;;;;;;-5.36;100.00;98692.08;52639;1254;1072557;-77
2023/03/02 06:36:54;;;;;;;96.30;47.00;;;;;;;-5.20;100.00;98691.21;52469;1257;1016169;-77
2023/03/02 06:39:21;;;;;;;114.30;50.60;;;;;;;-5.03;100.00;98686.80;52576;1259;1016012;-78
2023/03/02 06:41:48;;;;;;;96.20;44.90;;;;;;;-4.82;100.00;98687.64;52703;1260;1073808;-78
2023/03/02 06:44:15;;;;;;;57.50;27.90;;;;;;;-4.73;100.00;98689.46;52579;1259;1015915;-78
2023/03/02 06:46:42;;;;;;;108.20;49.30;;;;;;;-4.60;100.00;98688.58;52683;1269;1051570;-78
2023/03/02 06:49:09;;;;;;;125.00;53.00;;;;;;;-4.40;100.00;98686.75;52521;1260;1016243;-77
2023/03/02 06:51:36;;;;;;;465.40;225.60;;;;;;;-4.26;100.00;98684.66;52526;1260;1060960;-78
2023/03/02 06:54:03;;;;;;;183.50;82.70;;;;;;;-3.93;100.00;98683.64;52495;1254;1019581;-77
2023/03/02 06:56:30;;;;;;;386.60;192.70;;;;;;;-3.77;100.00;98684.10;52582;1254;1072551;-78
2023/03/02 06:58:57;;;;;;;131.20;56.00;;;;;;;-3.80;100.00;98683.58;52528;1254;1016480;-77
2023/03/02 07:01:23;;;;;;;113.20;53.70;;;;;;;-3.82;100.00;98684.16;52648;1259;1069945;-77
2023/03/02 07:03:50;;;;;;;86.60;40.90;;;;;;;-3.76;100.00;98682.61;52667;1260;1020238;-77
2023/03/02 07:06:17;;;;;;;90.20;40.60;;;;;;;-3.70;100.00;98681.91;52542;1262;1073072;-77
2023/03/02 07:08:44;;;;;;;85.50;41.10;;;;;;;-3.60;100.00;98684.95;52499;1266;1015984;-77
2023/03/02 07:11:11;;;;;;;102.10;48.40;;;;;;;-3.53;100.00;98686.33;52536;1260;1051502;-77
2023/03/02 07:13:38;;;;;;;109.10;51.50;;;;;;;-3.48;100.00;98683.33;52566;1259;1015974;-77
2023/03/02 07:16:11;;;;;;;93.90;43.90;;;;;;;-3.35;100.00;98685.71;53532;1254;1057584;-78
2023/03/02 07:18:38;;;;;;;96.70;44.40;;;;;;;-3.02;100.00;98683.02;53276;1259;1058713;-78
2023/03/02 07:21:04;;;;;;;103.40;47.20;;;;;;;-2.73;100.00;98679.30;52691;1254;1016584;-78
2023/03/02 07:23:31;;;;;;;88.30;41.50;;;;;;;-2.50;100.00;98677.96;52695;1260;1075318;-78
2023/03/02 07:25:58;;;;;;;107.40;50.20;;;;;;;-2.29;100.00;98674.61;52503;1257;1016098;-78
2023/03/02 07:28:25;;;;;;;83.00;41.90;;;;;;;-1.58;100.00;98676.90;52417;1268;1069211;-78
2023/03/02 07:30:52;;;;;;;100.40;52.90;;;;;;;-0.71;100.00;98677.43;52543;1260;1015990;-79
2023/03/02 07:33:19;;;;;;;120.10;69.50;;;;;;;0.39;100.00;98671.12;52491;1260;1073112;-79
2023/03/02 07:35:46;;;;;;;175.50;91.70;;;;;;;1.24;100.00;98670.79;52501;1267;1015705;-79
2023/03/02 07:38:12;;;;;;;248.50;128.10;;;;;;;2.10;100.00;98670.64;52488;1259;1051257;-78
2023/03/02 07:40:40;;;;;;;207.60;110.80;;;;;;;2.84;99.81;98669.96;52532;1267;1016191;-78
2023/03/02 07:43:07;;;;;;;158.70;94.20;;;;;;;3.50;97.36;98666.68;52529;1260;1059228;-77
2023/03/02 07:45:34;;;;;;;115.30;69.30;;;;;;;4.21;95.98;98666.19;52439;1260;1018062;-76
2023/03/02 07:48:01;;;;;;;177.80;99.70;;;;;;;4.62;94.15;98662.60;52470;1260;1075728;-76
2023/03/02 07:50:27;;;;;;;120.10;67.90;;;;;;;5.29;93.02;98663.27;52539;1263;1015842;-76
2023/03/02 07:52:54;;;;;;;124.80;70.30;;;;;;;5.57;86.76;98661.76;52588;1256;1072019;-77
2023/03/02 07:55:21;;;;;;;106.40;67.30;;;;;;;6.25;87.03;98656.54;52716;1254;1016120;-76
2023/03/02 07:57:47;;;;;;;86.20;55.50;;;;;;;6.72;84.75;98659.27;52602;1260;1071042;-77
2023/03/02 08:00:15;;;;;;;210.70;114.00;;;;;;;7.20;81.89;98665.95;52609;1260;1016463;-77
2023/03/02 08:02:41;;;;;;;107.10;57.70;;;;;;;7.59;83.52;98661.20;52763;1259;1052228;-77
2023/03/02 08:05:09;;;;;;;78.70;48.20;;;;;;;8.00;80.23;98666.20;52901;1256;1016142;-77
2023/03/02 08:07:36;;;;;;;80.20;50.20;;;;;;;7.42;82.12;98663.05;52630;1260;1058077;-77
2023/03/02 08:10:03;;;;;;;175.10;125.10;;;;;;;6.53;82.11;98662.27;52633;1254;1016303;-76
2023/03/02 08:12:30;;;;;;;69.70;44.60;;;;;;;5.63;82.58;98662.60;52675;1255;1073374;-77
2023/03/02 08:14:56;;;;;;;81.40;54.60;;;;;;;4.96;80.71;98657.49;52862;1260;1016335;-77
2023/03/02 08:17:23;;;;;;;67.50;37.30;;;;;;;4.52;83.47;98654.89;52552;1257;1069387;-76
2023/03/02 08:19:50;;;;;;;90.10;45.20;;;;;;;4.09;81.45;98654.92;52676;1254;1017162;-76
2023/03/02 08:22:16;;;;;;;88.50;45.60;;;;;;;3.57;81.13;98662.41;52641;1254;1071871;-75
2023/03/02 08:24:43;;;;;;;91.90;44.50;;;;;;;3.25;81.07;98659.07;52535;1257;1016000;-76
2023/03/02 08:27:13;;;;;;;62.40;35.90;;;;;;;3.94;81.04;98647.02;52569;1260;1051102;-76
2023/03/02 08:29:40;;;;;;;75.30;44.20;;;;;;;5.40;79.25;98647.41;52460;1254;1051317;-77
2023/03/02 08:32:06;;;;;;;62.20;39.10;;;;;;;6.84;73.18;98646.48;52609;1254;1015884;-76
2023/03/02 08:34:33;;;;;;;69.10;42.30;;;;;;;8.39;68.22;98641.59;52733;1255;1062028;-77
2023/03/02 08:37:00;;;;;;;68.00;40.90;;;;;;;10.03;69.22;98644.40;52549;1254;1016469;-77
2023/03/02 08:39:29;;;;;;;60.10;40.70;;;;;;;11.15;64.86;98649.39;52680;1257;1074440;-77
2023/03/02 08:41:56;;;;;;;59.10;39.40;;;;;;;11.54;59.28;98650.92;52695;1260;1016005;-77
2023/03/02 08:44:23;;;;;;;58.60;38.70;;;;;;;12.78;59.68;98640.06;52789;1260;1018072;-77
2023/03/02 08:46:50;;;;;;;52.90;38.10;;;;;;;13.61;56.61;98639.70;52582;1254;1072400;-77
2023/03/02 08:49:17;;;;;;;55.30;37.40;;;;;;;14.49;57.39;98629.88;52597;1258;1016396;-77
2023/03/02 08:51:44;;;;;;;55.10;36.70;;;;;;;15.10;51.69;98631.52;53943;1257;1071384;-78
2023/03/02 08:54:10;;;;;;;57.10;43.80;;;;;;;15.45;50.04;98629.44;53913;1254;1016378;-78
2023/03/02 08:56:38;;;;;;;51.20;37.00;;;;;;;16.37;46.23;98630.84;52775;1255;1051858;-78
2023/03/02 08:59:06;;;;;;;51.60;38.30;;;;;;;17.23;41.27;98622.02;52484;1259;1016874;-78
2023/03/02 09:01:34;;;;;;;56.50;37.70;;;;;;;17.04;40.10;98622.34;52610;1254;1058693;-78
2023/03/02 09:04:01;;;;;;;54.10;35.10;;;;;;;16.87;42.46;98618.92;52543;1259;1016051;-77
2023/03/02 09:06:29;;;;;;;49.80;36.20;;;;;;;15.04;43.12;98619.02;52585;1254;1074597;-78
2023/03/02 09:08:56;;;;;;;56.50;34.20;;;;;;;13.46;44.14;98615.66;52497;1257;1016480;-77
2023/03/02 09:11:22;;;;;;;52.80;31.50;;;;;;;12.11;42.69;98617.30;52617;1254;1069150;-77
2023/03/02 09:13:49;;;;;;;61.30;35.50;;;;;;;10.37;43.44;98615.57;52536;1257;1016033;-77
2023/03/02 09:16:16;;;;;;;49.30;30.40;;;;;;;9.21;46.95;98608.75;52490;1260;1071125;-77
2023/03/02 09:18:42;;;;;;;48.80;27.70;;;;;;;8.51;47.73;98605.03;52515;1256;1015821;-76
2023/03/02 09:21:09;;;;;;;54.30;30.10;;;;;;;7.95;48.03;98600.88;52590;1257;1051581;-77
2023/03/02 09:23:36;;;;;;;49.50;29.90;;;;;;;7.43;49.57;98598.21;52522;1255;1016215;-76
2023/03/02 09:26:03;;;;;;;62.60;32.10;;;;;;;6.92;49.35;98595.60;52598;1254;1057919;-77
2023/03/02 09:28:29;;;;;;;45.60;27.20;;;;;;;6.59;50.43;98590.67;52626;1255;1016538;-76
2023/03/02 09:30:58;;;;;;;48.10;24.50;;;;;;;6.32;51.23;98588.57;52788;1257;1074978;-79
2023/03/02 09:33:24;;;;;;;44.90;22.80;;;;;;;6.06;50.94;98582.21;52726;1254;1016250;-77
2023/03/02 09:35:51;;;;;;;50.90;25.70;;;;;;;5.82;51.21;98577.80;52654;1261;1070256;-76
2023/03/02 09:38:18;;;;;;;51.40;25.60;;;;;;;5.70;52.44;98574.41;52593;1257;1018790;-76
2023/03/02 09:41:11;;;;;;;43.00;24.10;;;;;;;5.63;52.80;98573.30;52806;1254;1073466;-76
2023/03/02 09:44:16;;;;;;;42.70;24.00;;;;;;;5.53;53.46;98574.23;52591;1254;1071578;-76
2023/03/02 09:46:46;;;;;;;39.50;20.80;;;;;;;5.39;53.25;98576.70;52587;1254;1071729;-74
2023/03/02 09:49:35;;;;;;;36.40;20.30;;;;;;;5.32;53.82;98579.09;52473;1255;1071908;-77
2023/03/02 09:52:07;;;;;;;42.00;21.60;;;;;;;5.28;54.12;98575.27;52576;1258;1071301;-78
2023/03/02 09:54:34;;;;;;;39.20;20.20;;;;;;;5.25;54.26;98573.20;52607;1260;1071009;-79
2023/03/02 09:57:01;;;;;;;39.00;19.50;;;;;;;5.26;54.64;98569.73;52754;1261;1016395;-77
2023/03/02 09:59:30;;;;;;;51.30;24.00;;;;;;;5.27;55.00;98569.66;52745;1258;1051428;-77
2023/03/02 10:02:08;;;;;;;34.80;18.70;;;;;;;5.31;54.97;98567.39;53974;1256;1015732;-78
2023/03/02 10:04:46;;;;;;;45.40;26.90;;;;;;;5.37;55.62;98562.34;53961;1254;1051787;-77
2023/03/02 10:07:16;;;;;;;42.90;21.80;;;;;;;5.37;55.73;98556.51;53971;1254;1051305;-77
2023/03/02 10:09:42;;;;;;;42.00;22.90;;;;;;;5.39;55.87;98552.73;53858;1254;1015987;-77
2023/03/02 10:12:54;;;;;;;45.40;25.40;;;;;;;5.41;56.30;98547.67;53916;1254;1015775;-76
2023/03/02 10:15:41;;;;;;;38.80;21.80;;;;;;;5.57;56.89;98544.86;52359;1264;1061638;-77
2023/03/02 10:18:21;;;;;;;37.90;22.10;;;;;;;5.65;56.66;98540.27;52214;1264;1061341;-78
2023/03/02 10:20:52;;;;;;;38.70;20.40;;;;;;;5.77;56.91;98541.33;52526;1254;1058713;-77
2023/03/02 10:23:19;;;;;;;39.80;22.40;;;;;;;5.84;56.21;98541.70;52485;1257;1059416;-77
2023/03/02 10:25:47;;;;;;;53.40;24.50;;;;;;;5.89;55.60;98534.77;52538;1258;1016273;-78
2023/03/02 10:28:23;;;;;;;43.50;22.20;;;;;;;5.98;56.07;98531.67;52541;1254;1074646;-77
2023/03/02 10:31:08;;;;;;;48.40;24.60;;;;;;;6.09;57.03;98529.08;52785;1257;1072967;-78
2023/03/02 10:33:36;;;;;;;39.50;20.50;;;;;;;6.17;56.47;98530.16;52636;1254;1073265;-78
2023/03/02 10:36:04;;;;;;;48.60;23.70;;;;;;;6.14;54.40;98525.56;52540;1254;1016170;-78
2023/03/02 10:38:30;;;;;;;42.00;20.10;;;;;;;6.14;54.97;98524.44;52557;1254;1072377;-77
2023/03/02 10:40:59;;;;;;;37.00;20.80;;;;;;;6.21;54.85;98519.89;52518;1257;1016201;-78
2023/03/02 10:43:29;;;;;;;35.70;20.90;;;;;;;6.26;54.55;98516.48;53251;1254;1071440;-78
2023/03/02 10:46:07;;;;;;;35.60;21.00;;;;;;;6.31;54.39;98514.27;52462;1257;1071521;-77
2023/03/02 10:48:55;;;;;;;37.50;19.70;;;;;;;6.30;53.26;98508.06;52519;1258;1072215;-78
2023/03/02 10:51:26;;;;;;;45.70;21.20;;;;;;;6.34;53.20;98506.58;53552;1254;1071009;-77
2023/03/02 10:54:09;;;;;;;38.10;21.50;;;;;;;6.38;53.28;98503.64;52547;1255;1074409;-77
2023/03/02 10:56:35;;;;;;;43.40;22.20;;;;;;;6.49;54.20;98501.20;52556;1257;1070781;-77
2023/03/02 10:59:28;;;;;;;39.00;20.60;;;;;;;6.56;54.22;98499.34;52488;1257;1019134;-77
2023/03/02 11:02:02;;;;;;;39.40;20.90;;;;;;;6.61;54.02;98490.91;52555;1254;1053263;-78